Observations
| Time | Sensor | AQI | SAQ | Temp °C | Hum % | Pres Pa | CO μg/m³ | H₂S μg/m³ | NO μg/m³ | NO₂ μg/m³ | O₃ μg/m³ | SO₂ μg/m³ | CO₂e PPM | VOC PPM | PM1 μg/m³ | PM2.5 μg/m³ | PM4 μg/m³ | PM10 μg/m³ | TPS µm |
|---|---|---|---|---|---|---|---|---|---|---|---|---|---|---|---|---|---|---|---|
| Wednesday 12 August 2026 | |||||||||||||||||||
| 20:20 | Trim Patrick St | 3 | 30 | 40 | 69,363 | 0 | 20.21 | 0.48 | 24.01 | 66.19 | 16.51 | 4.57 | 10.94 | 12.04 | |||||
| 20:19 | Trim Patrick St | 3 | 30 | 41 | 69,334 | 0 | 20.88 | 0.46 | 19.71 | 63.32 | 16.48 | 4.57 | 10.13 | 11.15 | |||||
| 20:18 | Trim Patrick St | 3 | 30.1 | 40 | 69,322 | 0 | 23.99 | 0.46 | 26.61 | 61.02 | 17.58 | 4.57 | 10.15 | 11.17 | |||||
| 20:17 | Trim Patrick St | 3 | 30.1 | 40 | 69,339 | 0 | 19.78 | 0.45 | 18.72 | 72.03 | 17.29 | 4.57 | 10.93 | 12.02 | |||||
| 20:16 | Trim Patrick St | 3 | 30.2 | 40 | 69,332 | 0 | 19.59 | 0.45 | 18.3 | 66.07 | 17.1 | 4.57 | 10.2 | 11.22 | |||||
| 20:15 | Trim Market St | 3 | 29.6 | 40 | 65,811 | 0 | 0.44 | 0.48 | 17.5 | 75.57 | 0 | 2.85 | 5.51 | 7.53 | |||||
| 20:15 | Trim Patrick St | 4 | 30.3 | 40 | 69,349 | 0 | 18.16 | 0.44 | 17.09 | 68.33 | 16.56 | 4.57 | 9.38 | 10.32 | |||||
| 20:14 | Trim Patrick St | 3 | 30.3 | 40 | 69,347 | 0 | 17.35 | 0.47 | 14.28 | 73.56 | 16.89 | 3.71 | 10.16 | 11.18 | |||||
| 20:13 | Trim Market St | 3 | 29.8 | 40 | 65,827 | 0 | 0.8 | 0.47 | 16.1 | 73.45 | 0 | 2.14 | 5.52 | 6.72 | |||||
| 20:13 | Trim Patrick St | 4 | 30.4 | 40 | 69,367 | 0 | 21.61 | 0.46 | 22.54 | 64.37 | 17.64 | 5.43 | 12.51 | 13.76 | |||||
| 20:12 | Trim Market St | 3 | 29.8 | 40 | 65,853 | 0 | 1.41 | 0.48 | 16.81 | 78.23 | 0 | 2.14 | 4.99 | 6.72 | |||||
| 20:12 | Trim Patrick St | 3 | 30.5 | 40 | 69,367 | 0 | 18.6 | 0.47 | 17.96 | 63.87 | 17.49 | 4.57 | 10.17 | 11.19 | |||||
| 20:11 | Trim Market St | 3 | 29.9 | 40 | 65,853 | 0 | 0.74 | 0.48 | 14.7 | 78.6 | 0 | 1.43 | 4.99 | 5.92 | |||||
| 20:11 | Trim Patrick St | 4 | 30.5 | 40 | 69,397 | 0 | 19.08 | 0.45 | 19.69 | 65.34 | 17.24 | 5.43 | 11.75 | 12.93 | |||||
| 20:10 | Trim Market St | 3 | 29.9 | 40 | 65,853 | 0 | 1.49 | 0.48 | 16.1 | 81.28 | 0 | 3.56 | 6.58 | 7.53 | |||||
| 20:10 | Trim Patrick St | 3 | 30.6 | 40 | 69,401 | 0 | 18.67 | 0.43 | 19.37 | 66.84 | 17.32 | 4.57 | 9.4 | 10.34 | |||||
| 20:09 | Trim Patrick St | 3 | 30.7 | 39 | 69,383 | 0 | 20.03 | 0.41 | 20.27 | 60.69 | 17.21 | 3.71 | 10.25 | 11.28 | |||||
| 20:08 | Trim Patrick St | 4 | 30.7 | 40 | 69,383 | 0 | 23.58 | 0.43 | 26.46 | 63.15 | 18.14 | 3.71 | 9.43 | 10.37 | |||||
| 20:07 | Trim Market St | 3 | 30 | 40 | 65,921 | 0 | 0.19 | 0.48 | 14.3 | 75.23 | 0 | 2.14 | 5.01 | 5.11 | |||||
| 20:07 | Trim Patrick St | 4 | 30.8 | 40 | 69,387 | 0 | 20.08 | 0.43 | 21.11 | 66.06 | 18.02 | 4.57 | 11 | 12.1 | |||||